Portada
METAR-TAF:

METAR-TAF

Aeroports :

Eastmain River, Quebec, Canadà

latitud: 52-14N, longitud: 078-31W, altitud: 7 m

Observació

L'informe es va fer fa 15 hores i 55 minuts, a les 20:00 UTC
Vent 7 kt del Oest/Sud-Oest
Temperatura 1°C
Humitat 93%
Pressió 1025 hPa
Visibilitat: 24.1 km
Cel ennuvolat a una alçada de 4000 ft
Cel ennuvolat a una alçada de 5000 ft
Cel ennuvolat a una alçada de 15000 ft
xàfecs en les proximitats

METAR: CZEM 222000Z 24007KT 15SM VCSH BKN040 BKN050 BKN150 01/M00 A3028 RMK SC5SC1AC1 LAST STFD OBS/NEXT 231300 UTC SLP257

Hora: 07:55 (11:55 UTC)


TAF: manca

Observacions i pronòstics meteorològics de més de 4000 aeroports (METAR i TAF).

Les estacions disponibles són els punts grocs i vermells al mapa.

Posi el ratolí al punt desitjat per veure el nom de l'estació.

Feu clic per veure les observacions i els pronòstics meteorològics.

Per canviar el mapa: feu clic els botons verds amb una creu de color negre per apropar; al botó verd amb un guió per allunyar la imatge; o en les fletxes verdes per a mapes adjacents.


METAR-TAF: